createdAt,value
2018-06-16T00:02:08.093Z,17.18
2018-06-16T00:04:36.711Z,17.08
2018-06-16T00:07:05.593Z,17.11
2018-06-16T00:09:34.392Z,17.05
2018-06-16T00:12:03.147Z,17.06
2018-06-16T00:14:31.780Z,16.99
2018-06-16T00:17:00.527Z,16.95
2018-06-16T00:19:29.247Z,16.94
2018-06-16T00:21:58.181Z,16.90
2018-06-16T00:24:27.276Z,16.92
2018-06-16T00:26:55.992Z,16.86
2018-06-16T00:29:24.606Z,16.77
2018-06-16T00:31:53.154Z,16.78
2018-06-16T00:34:21.681Z,16.72
2018-06-16T00:36:50.614Z,16.66
2018-06-16T00:39:19.370Z,16.56
2018-06-16T00:41:48.090Z,16.60
2018-06-16T00:44:16.847Z,16.48
2018-06-16T00:46:45.768Z,16.58
2018-06-16T00:49:14.616Z,16.58
2018-06-16T00:51:43.196Z,16.46
2018-06-16T00:54:11.707Z,16.37
2018-06-16T00:56:40.306Z,16.41
2018-06-16T00:59:08.993Z,16.30
2018-06-16T01:01:37.965Z,16.19
2018-06-16T01:04:06.670Z,16.15
2018-06-16T01:06:35.258Z,16.16
2018-06-16T01:09:04.760Z,16.35
2018-06-16T01:11:33.463Z,16.32
2018-06-16T01:14:02.731Z,16.28
2018-06-16T01:16:31.504Z,16.20
2018-06-16T01:19:00.587Z,16.15
2018-06-16T01:21:29.291Z,16.27
2018-06-16T01:23:57.832Z,16.20
2018-06-16T01:26:26.507Z,16.14
2018-06-16T01:28:55.107Z,16.03
2018-06-16T01:31:23.664Z,15.97
2018-06-16T01:33:52.338Z,16.17
2018-06-16T01:36:20.959Z,16.15
2018-06-16T01:38:49.602Z,16.02
2018-06-16T01:41:18.392Z,15.95
2018-06-16T01:43:47.079Z,16.13
2018-06-16T01:46:16.072Z,15.99
2018-06-16T01:48:44.860Z,16.09
2018-06-16T01:51:13.853Z,16.06
2018-06-16T01:53:42.395Z,15.91
2018-06-16T01:56:11.187Z,15.76
2018-06-16T01:58:39.807Z,15.75
2018-06-16T02:01:08.693Z,15.81
2018-06-16T02:03:37.691Z,15.84
2018-06-16T02:06:06.375Z,15.91
2018-06-16T02:08:35.061Z,15.91
2018-06-16T02:11:03.748Z,15.89
2018-06-16T02:13:32.334Z,15.90
2018-06-16T02:16:01.103Z,15.94
2018-06-16T02:18:29.940Z,15.95
2018-06-16T02:20:58.542Z,15.92
2018-06-16T02:23:27.199Z,15.88
2018-06-16T02:25:56.000Z,15.83
2018-06-16T02:28:25.059Z,15.78
2018-06-16T02:30:53.873Z,15.76
2018-06-16T02:33:22.534Z,15.60
2018-06-16T02:35:51.219Z,15.56
2018-06-16T02:38:20.008Z,15.38
2018-06-16T02:40:48.876Z,15.18
2018-06-16T02:43:17.551Z,14.99
2018-06-16T02:45:46.168Z,14.81
2018-06-16T02:48:15.058Z,14.93
2018-06-16T02:50:43.743Z,15.05
2018-06-16T02:53:12.924Z,15.07
2018-06-16T02:55:41.473Z,15.04
2018-06-16T02:58:10.312Z,15.13
2018-06-16T03:00:38.999Z,15.09
2018-06-16T03:03:07.639Z,15.12
2018-06-16T03:05:36.370Z,15.28
2018-06-16T03:08:05.040Z,15.28
2018-06-16T03:10:33.672Z,15.16
2018-06-16T03:13:02.324Z,15.18
2018-06-16T03:15:31.012Z,15.08
2018-06-16T03:17:59.697Z,15.12
2018-06-16T03:20:28.319Z,15.06
2018-06-16T03:22:56.867Z,15.09
2018-06-16T03:25:25.534Z,14.97
2018-06-16T03:27:54.181Z,14.90
2018-06-16T03:30:22.950Z,15.14
2018-06-16T03:32:51.552Z,15.08
2018-06-16T03:35:20.179Z,14.95
2018-06-16T03:37:49.029Z,14.91
2018-06-16T03:40:17.640Z,14.73
2018-06-16T03:42:46.531Z,14.82
2018-06-16T03:45:15.335Z,14.85
2018-06-16T03:47:44.243Z,14.88
2018-06-16T03:50:13.023Z,14.88
2018-06-16T03:52:41.655Z,14.86
2018-06-16T03:55:10.372Z,14.72
2018-06-16T03:57:39.182Z,14.84
2018-06-16T04:00:07.764Z,14.84
2018-06-16T04:02:36.451Z,14.76
2018-06-16T04:05:05.138Z,14.74
2018-06-16T04:07:34.324Z,14.76
2018-06-16T04:10:02.954Z,14.75
2018-06-16T04:12:31.551Z,14.85
2018-06-16T04:15:00.320Z,14.60
2018-06-16T04:17:29.204Z,14.84
2018-06-16T04:19:58.172Z,15.00
2018-06-16T04:22:26.916Z,15.03
2018-06-16T04:24:55.482Z,14.93
2018-06-16T04:27:24.233Z,14.90
2018-06-16T04:29:52.871Z,15.16
2018-06-16T04:32:21.914Z,15.19
2018-06-16T04:34:50.764Z,15.25
2018-06-16T04:37:19.443Z,15.32
2018-06-16T04:39:48.404Z,15.34
2018-06-16T04:42:17.313Z,15.43
2018-06-16T04:44:46.392Z,15.46
2018-06-16T04:47:15.065Z,15.08
2018-06-16T04:49:43.652Z,15.11
2018-06-16T04:52:12.420Z,14.93
2018-06-16T04:54:41.044Z,15.26
2018-06-16T04:57:09.729Z,15.32
2018-06-16T04:59:38.476Z,15.73
2018-06-16T05:02:07.536Z,15.73
2018-06-16T05:04:36.169Z,15.38
2018-06-16T05:07:04.751Z,15.53
2018-06-16T05:09:37.212Z,16.14
2018-06-16T05:12:05.903Z,16.35
2018-06-16T05:14:34.624Z,16.52
2018-06-16T05:17:03.442Z,16.65
2018-06-16T05:19:32.096Z,16.44
2018-06-16T05:22:00.851Z,16.43
2018-06-16T05:24:29.487Z,16.62
2018-06-16T05:26:58.160Z,17.13
2018-06-16T05:29:26.780Z,17.43
2018-06-16T05:31:55.429Z,17.71
2018-06-16T05:34:24.160Z,17.68
2018-06-16T05:36:52.728Z,17.77
2018-06-16T05:39:21.532Z,17.82
2018-06-16T05:41:50.229Z,17.96
2018-06-16T05:44:18.927Z,18.27
2018-06-16T05:46:47.928Z,18.48
2018-06-16T05:49:16.594Z,18.68
2018-06-16T05:51:45.283Z,18.86
2018-06-16T05:54:14.070Z,19.03
2018-06-16T05:56:42.676Z,19.14
2018-06-16T05:59:11.536Z,19.21
2018-06-16T06:01:40.171Z,19.27
2018-06-16T06:04:08.743Z,19.56
2018-06-16T06:06:37.415Z,19.64
2018-06-16T06:09:08.099Z,19.79
2018-06-16T06:11:37.231Z,19.88
2018-06-16T06:14:07.524Z,20.17
2018-06-16T06:16:39.659Z,20.24
2018-06-16T06:19:12.371Z,20.33
2018-06-16T06:21:45.252Z,20.57
2018-06-16T06:24:17.491Z,20.83
2018-06-16T06:26:46.529Z,20.93
2018-06-16T06:29:18.026Z,20.83
2018-06-16T06:31:50.353Z,20.93
2018-06-16T06:34:21.290Z,21.34
2018-06-16T06:36:53.207Z,21.49
2018-06-16T06:39:24.369Z,21.66
2018-06-16T06:41:54.975Z,21.69
2018-06-16T06:44:26.456Z,21.90
2018-06-16T06:46:56.832Z,22.43
2018-06-16T06:49:27.649Z,22.81
2018-06-16T06:51:57.874Z,22.99
2018-06-16T06:54:29.363Z,23.30
2018-06-16T06:57:01.382Z,23.70
2018-06-16T06:59:30.037Z,24.42
2018-06-16T07:01:58.645Z,24.71
2018-06-16T07:04:27.428Z,25.74
2018-06-16T07:06:55.980Z,26.34
2018-06-16T07:09:25.030Z,26.59
2018-06-16T07:11:53.736Z,26.90
2018-06-16T07:14:22.352Z,26.99
2018-06-16T07:16:51.179Z,27.23
2018-06-16T07:19:19.878Z,27.33
2018-06-16T07:21:48.564Z,26.87
2018-06-16T07:24:17.184Z,27.31
2018-06-16T07:26:46.030Z,26.82
2018-06-16T07:29:15.263Z,27.16
2018-06-16T07:31:45.098Z,27.60
2018-06-16T07:34:16.468Z,27.97
2018-06-16T07:36:45.380Z,27.33
2018-06-16T07:39:16.199Z,28.00
2018-06-16T07:41:45.709Z,27.73
2018-06-16T07:44:14.363Z,28.48
2018-06-16T07:46:46.712Z,28.59
2018-06-16T07:49:21.406Z,29.31
2018-06-16T07:51:53.679Z,29.63
2018-06-16T07:54:25.400Z,29.96
2018-06-16T07:56:57.330Z,30.04
2018-06-16T07:59:27.013Z,30.05
2018-06-16T08:01:59.400Z,28.18
2018-06-16T08:04:30.219Z,28.49
2018-06-16T08:07:02.276Z,29.43
2018-06-16T08:09:32.268Z,30.01
2018-06-16T08:12:05.809Z,30.85
2018-06-16T08:14:36.976Z,31.47
2018-06-16T08:17:09.449Z,31.25
2018-06-16T08:19:42.163Z,30.59
2018-06-16T08:22:15.912Z,30.52
2018-06-16T08:24:47.186Z,30.31
2018-06-16T08:27:15.915Z,30.69
2018-06-16T08:29:48.203Z,31.09
2018-06-16T08:32:21.078Z,31.10
2018-06-16T08:34:51.423Z,29.40
2018-06-16T08:37:22.292Z,30.10
2018-06-16T08:39:53.769Z,30.04
2018-06-16T08:42:24.161Z,29.32
2018-06-16T08:44:55.264Z,29.04
2018-06-16T08:47:26.070Z,28.33
2018-06-16T08:49:56.630Z,29.21
2018-06-16T08:52:25.314Z,30.31
2018-06-16T08:54:55.304Z,31.40
2018-06-16T08:57:25.346Z,32.28
2018-06-16T08:59:55.878Z,32.62
2018-06-16T09:02:24.460Z,31.32
2018-06-16T09:04:53.063Z,32.29
2018-06-16T09:07:21.775Z,33.13
2018-06-16T09:09:50.512Z,32.74
2018-06-16T09:12:20.559Z,33.13
2018-06-16T09:14:52.859Z,33.89
2018-06-16T09:17:21.559Z,33.07
2018-06-16T09:19:50.131Z,33.63
2018-06-16T09:22:18.919Z,33.78
2018-06-16T09:24:47.624Z,34.23
2018-06-16T09:27:16.714Z,35.31
2018-06-16T09:29:45.415Z,35.17
2018-06-16T09:32:14.145Z,35.39
2018-06-16T09:34:43.107Z,36.15
2018-06-16T09:37:11.921Z,35.55
2018-06-16T09:39:41.095Z,35.20
2018-06-16T09:45:41.828Z,34.99
2018-06-16T09:48:10.655Z,36.54
2018-06-16T09:50:39.411Z,36.99
2018-06-16T09:53:08.115Z,36.60
2018-06-16T09:55:36.690Z,37.88
2018-06-16T09:58:06.204Z,37.95
2018-06-16T10:00:41.305Z,37.73
2018-06-16T10:03:11.110Z,37.65
2018-06-16T10:05:40.255Z,36.83
2018-06-16T10:08:09.000Z,38.38
2018-06-16T10:10:37.857Z,39.08
2018-06-16T10:13:06.710Z,39.62
2018-06-16T10:15:35.423Z,40.06
2018-06-16T10:18:04.002Z,39.63
2018-06-16T10:20:32.807Z,37.82
2018-06-16T10:23:01.534Z,38.12
2018-06-16T10:25:30.146Z,38.09
2018-06-16T10:27:59.311Z,37.41
2018-06-16T10:30:28.183Z,37.55
2018-06-16T10:32:56.996Z,38.49
2018-06-16T10:35:25.695Z,38.61
2018-06-16T10:37:54.443Z,36.32
2018-06-16T10:40:23.275Z,36.81
2018-06-16T10:42:52.000Z,36.59
2018-06-16T10:45:21.081Z,35.50
2018-06-16T10:47:49.972Z,34.75
2018-06-16T10:50:18.743Z,36.35
2018-06-16T10:52:47.617Z,36.99
2018-06-16T10:55:16.319Z,36.60
2018-06-16T10:57:45.422Z,36.93
2018-06-16T11:00:14.540Z,36.83
2018-06-16T11:02:43.408Z,36.53
2018-06-16T11:05:12.644Z,37.97
2018-06-16T11:07:41.859Z,38.73
2018-06-16T11:10:10.468Z,39.43
2018-06-16T11:12:39.219Z,38.88
2018-06-16T11:15:07.959Z,39.99
2018-06-16T11:17:36.858Z,40.30
2018-06-16T11:20:05.892Z,39.75
2018-06-16T11:22:34.730Z,40.94
2018-06-16T11:25:03.828Z,40.78
2018-06-16T11:27:32.456Z,42.16
2018-06-16T11:30:01.710Z,42.37
2018-06-16T11:32:30.575Z,41.70
2018-06-16T11:34:59.390Z,42.99
2018-06-16T11:37:28.032Z,44.22
2018-06-16T11:39:56.664Z,44.17
2018-06-16T11:42:25.411Z,43.81
2018-06-16T11:44:54.040Z,44.52
2018-06-16T11:47:22.571Z,45.04
2018-06-16T11:49:51.195Z,44.50
2018-06-16T11:52:20.045Z,44.56
2018-06-16T11:54:48.752Z,43.38
2018-06-16T11:57:17.908Z,44.17
2018-06-16T11:59:46.676Z,44.20
2018-06-16T12:02:15.460Z,41.88
2018-06-16T12:04:44.437Z,40.95
2018-06-16T12:07:13.404Z,40.36
2018-06-16T12:09:42.160Z,40.52
2018-06-16T12:12:11.120Z,39.71
2018-06-16T12:14:39.992Z,39.06
2018-06-16T12:17:09.013Z,40.20
2018-06-16T12:19:37.837Z,40.83
2018-06-16T12:22:06.525Z,41.69
2018-06-16T12:24:35.277Z,41.37
2018-06-16T12:27:03.945Z,40.70
2018-06-16T12:29:32.668Z,40.10
2018-06-16T12:32:01.502Z,40.54
2018-06-16T12:34:30.166Z,40.06
2018-06-16T12:36:58.888Z,40.00
2018-06-16T12:39:27.604Z,41.23
2018-06-16T12:41:56.316Z,40.89
2018-06-16T12:44:25.152Z,39.69
2018-06-16T12:46:53.896Z,40.63
2018-06-16T12:49:26.518Z,41.65
2018-06-16T12:51:55.088Z,41.81
2018-06-16T12:54:23.732Z,41.94
2018-06-16T12:56:52.373Z,40.35
2018-06-16T12:59:21.361Z,39.69
2018-06-16T13:01:50.100Z,39.23
2018-06-16T13:04:19.041Z,40.44
2018-06-16T13:06:48.166Z,41.00
2018-06-16T13:09:16.854Z,40.45
2018-06-16T13:11:45.582Z,40.06
2018-06-16T13:14:14.379Z,39.59
2018-06-16T13:16:46.704Z,39.87
2018-06-16T13:19:15.847Z,39.96
2018-06-16T13:21:44.605Z,39.62
2018-06-16T13:24:20.359Z,40.34
2018-06-16T13:26:48.932Z,39.73
2018-06-16T13:29:17.833Z,38.67
2018-06-16T13:31:47.171Z,39.11
2018-06-16T13:34:15.855Z,38.85
2018-06-16T13:36:44.794Z,38.16
2018-06-16T13:39:13.506Z,37.98
2018-06-16T13:41:42.807Z,37.42
2018-06-16T13:44:12.726Z,36.74
2018-06-16T13:46:41.399Z,36.61
2018-06-16T13:49:10.259Z,36.44
2018-06-16T13:51:38.918Z,36.48
2018-06-16T13:54:08.293Z,36.44
2018-06-16T13:56:37.388Z,36.90
2018-06-16T13:59:06.065Z,36.98
2018-06-16T14:01:35.116Z,37.10
2018-06-16T14:04:03.740Z,37.15
2018-06-16T14:06:32.406Z,37.10
2018-06-16T14:09:01.172Z,36.67
2018-06-16T14:11:30.044Z,36.77
2018-06-16T14:13:58.780Z,36.96
2018-06-16T14:16:27.913Z,37.10
2018-06-16T14:18:56.498Z,37.05
2018-06-16T14:21:25.160Z,36.77
2018-06-16T14:23:57.982Z,36.68
2018-06-16T14:26:30.684Z,36.68
2018-06-16T14:28:59.427Z,35.98
2018-06-16T14:31:28.137Z,35.15
2018-06-16T14:33:57.124Z,34.78
2018-06-16T14:36:27.441Z,34.53
2018-06-16T14:38:56.762Z,34.02
2018-06-16T14:41:25.868Z,34.19
2018-06-16T14:43:55.408Z,34.48
2018-06-16T14:46:24.176Z,34.53
2018-06-16T14:48:52.932Z,34.26
2018-06-16T14:51:21.556Z,34.71
2018-06-16T14:53:50.218Z,34.78
2018-06-16T14:56:18.819Z,35.04
2018-06-16T14:58:47.448Z,35.02
2018-06-16T15:01:16.047Z,34.00
2018-06-16T15:03:44.810Z,34.16
2018-06-16T15:06:13.420Z,34.22
2018-06-16T15:08:42.350Z,34.35
2018-06-16T15:11:10.976Z,34.32
2018-06-16T15:13:39.647Z,34.21
2018-06-16T15:16:09.135Z,34.34
2018-06-16T15:18:39.671Z,34.24
2018-06-16T15:21:08.620Z,34.10
2018-06-16T15:23:37.291Z,34.02
2018-06-16T15:26:06.080Z,33.88
2018-06-16T15:28:34.692Z,33.75
2018-06-16T15:31:03.249Z,33.30
2018-06-16T15:33:31.932Z,33.23
2018-06-16T15:36:00.797Z,33.05
2018-06-16T15:38:29.395Z,33.04
2018-06-16T15:40:58.320Z,32.63
2018-06-16T15:43:26.933Z,32.28
2018-06-16T15:45:55.953Z,31.57
2018-06-16T15:48:24.612Z,31.26
2018-06-16T15:50:53.244Z,30.53
2018-06-16T15:53:22.003Z,30.70
2018-06-16T15:55:51.359Z,30.77
2018-06-16T15:58:20.624Z,30.67
2018-06-16T16:00:49.801Z,30.89
2018-06-16T16:03:18.968Z,31.11
2018-06-16T16:05:48.216Z,30.99
2018-06-16T16:08:16.879Z,30.90
2018-06-16T16:10:45.804Z,31.10
2018-06-16T16:13:14.827Z,30.91
2018-06-16T16:15:44.201Z,30.80
2018-06-16T16:18:12.831Z,30.54
2018-06-16T16:20:41.472Z,30.53
2018-06-16T16:23:10.684Z,30.34
2018-06-16T16:25:40.000Z,30.25
2018-06-16T16:28:08.892Z,30.35
2018-06-16T16:30:37.524Z,30.17
2018-06-16T16:33:06.355Z,29.83
2018-06-16T16:35:35.100Z,29.81
2018-06-16T16:38:04.029Z,29.91
2018-06-16T16:40:32.912Z,29.82
2018-06-16T16:43:01.632Z,29.83
2018-06-16T16:45:30.421Z,29.69
2018-06-16T16:47:59.360Z,29.73
2018-06-16T16:50:28.525Z,29.63
2018-06-16T16:52:57.143Z,29.57
2018-06-16T16:55:25.842Z,29.53
2018-06-16T16:57:54.456Z,29.43
2018-06-16T17:00:23.275Z,29.37
2018-06-16T17:02:52.199Z,29.30
2018-06-16T17:05:21.280Z,29.43
2018-06-16T17:07:50.276Z,29.42
2018-06-16T17:10:18.881Z,29.20
2018-06-16T17:12:48.196Z,29.24
2018-06-16T17:15:17.112Z,29.11
2018-06-16T17:17:53.312Z,29.10
2018-06-16T17:20:22.112Z,28.84
2018-06-16T17:22:50.727Z,28.65
2018-06-16T17:25:19.760Z,28.69
2018-06-16T17:27:48.300Z,28.60
2018-06-16T17:30:17.451Z,28.40
2018-06-16T17:32:46.047Z,28.23
2018-06-16T17:35:15.638Z,28.31
2018-06-16T17:37:44.240Z,28.13
2018-06-16T17:40:12.929Z,28.07
2018-06-16T17:42:41.593Z,28.11
2018-06-16T17:45:10.147Z,27.98
2018-06-16T17:47:38.880Z,27.90
2018-06-16T17:50:07.531Z,27.78
2018-06-16T17:52:36.195Z,27.75
2018-06-16T17:55:05.084Z,27.63
2018-06-16T17:57:34.543Z,27.57
2018-06-16T18:00:03.204Z,27.52
2018-06-16T18:02:31.855Z,27.39
2018-06-16T18:05:00.498Z,27.33
2018-06-16T18:07:29.376Z,27.19
2018-06-16T18:09:57.909Z,27.07
2018-06-16T18:12:26.505Z,26.99
2018-06-16T18:14:55.072Z,26.87
2018-06-16T18:17:23.832Z,26.89
2018-06-16T18:19:52.694Z,26.61
2018-06-16T18:22:21.337Z,26.82
2018-06-16T18:24:50.155Z,26.77
2018-06-16T18:27:18.855Z,26.81
2018-06-16T18:29:50.088Z,26.77
2018-06-16T18:32:19.095Z,26.81
2018-06-16T18:34:47.731Z,26.82
2018-06-16T18:37:16.327Z,26.75
2018-06-16T18:39:45.127Z,26.75
2018-06-16T18:42:13.664Z,26.73
2018-06-16T18:44:42.237Z,26.80
2018-06-16T18:47:11.184Z,26.68
2018-06-16T18:49:39.733Z,26.65
2018-06-16T18:52:08.395Z,26.57
2018-06-16T18:54:37.184Z,26.54
2018-06-16T18:57:06.184Z,26.61
2018-06-16T18:59:34.831Z,26.59
2018-06-16T19:02:03.559Z,26.56
2018-06-16T19:04:32.104Z,26.54
2018-06-16T19:07:00.640Z,26.38
2018-06-16T19:09:29.352Z,26.46
2018-06-16T19:11:57.980Z,26.40
2018-06-16T19:14:26.711Z,26.35
2018-06-16T19:16:55.487Z,26.24
2018-06-16T19:19:24.766Z,26.21
2018-06-16T19:21:53.631Z,26.16
2018-06-16T19:24:22.291Z,26.08
2018-06-16T19:26:50.859Z,26.03
2018-06-16T19:29:19.443Z,25.92
2018-06-16T19:31:48.019Z,25.86
2018-06-16T19:34:16.868Z,25.82
2018-06-16T19:36:45.623Z,25.71
2018-06-16T19:39:14.188Z,25.68
2018-06-16T19:41:42.780Z,25.65
2018-06-16T19:44:11.456Z,25.63
2018-06-16T19:46:40.136Z,25.60
2018-06-16T19:49:09.064Z,25.50
2018-06-16T19:51:37.802Z,25.49
2018-06-16T19:54:06.724Z,25.46
2018-06-16T19:56:35.396Z,25.39
2018-06-16T19:59:03.999Z,25.29
2018-06-16T20:01:32.519Z,25.25
2018-06-16T20:04:01.312Z,25.19
2018-06-16T20:06:29.979Z,25.14
2018-06-16T20:08:58.900Z,25.05
2018-06-16T20:11:27.655Z,25.08
2018-06-16T20:13:56.208Z,24.96
2018-06-16T20:16:24.791Z,24.94
2018-06-16T20:18:54.718Z,24.96
2018-06-16T20:21:23.789Z,24.93
2018-06-16T20:23:52.840Z,24.89
2018-06-16T20:26:30.952Z,24.80
2018-06-16T20:29:03.856Z,24.69
2018-06-16T20:31:32.571Z,24.58
2018-06-16T20:34:01.346Z,24.56
2018-06-16T20:36:29.964Z,24.49
2018-06-16T20:38:58.632Z,24.30
2018-06-16T20:41:27.946Z,24.27
2018-06-16T20:43:56.879Z,24.29
2018-06-16T20:46:26.251Z,24.19
2018-06-16T20:48:55.284Z,24.10
2018-06-16T20:51:24.262Z,24.06
2018-06-16T20:53:53.095Z,23.97
2018-06-16T20:56:22.287Z,24.00
2018-06-16T20:58:51.618Z,23.97
2018-06-16T21:01:20.710Z,24.00
2018-06-16T21:03:49.797Z,23.93
2018-06-16T21:06:19.191Z,23.85
2018-06-16T21:08:47.871Z,23.77
2018-06-16T21:11:16.561Z,23.62
2018-06-16T21:13:45.527Z,23.38
2018-06-16T21:16:14.232Z,23.40
2018-06-16T21:18:43.154Z,23.20
2018-06-16T21:21:11.872Z,23.09
2018-06-16T21:23:40.647Z,22.95
2018-06-16T21:26:09.299Z,22.92
2018-06-16T21:28:37.864Z,22.81
2018-06-16T21:31:06.540Z,22.82
2018-06-16T21:33:35.420Z,22.71
2018-06-16T21:36:04.088Z,22.76
2018-06-16T21:41:00.141Z,22.51
2018-06-16T21:43:28.827Z,22.39
2018-06-16T21:45:57.445Z,22.29
2018-06-16T21:48:26.104Z,22.31
2018-06-16T21:50:54.868Z,22.28
2018-06-16T21:53:23.575Z,22.21
2018-06-16T21:55:52.428Z,22.17
2018-06-16T21:58:21.167Z,22.08
2018-06-16T22:00:49.777Z,22.05
2018-06-16T22:03:18.905Z,21.83
2018-06-16T22:05:47.541Z,21.78
2018-06-16T22:08:25.478Z,21.63
2018-06-16T22:10:54.393Z,21.66
2018-06-16T22:13:23.025Z,21.52
2018-06-16T22:15:51.944Z,21.56
2018-06-16T22:18:20.539Z,21.37
2018-06-16T22:20:49.208Z,21.29
2018-06-16T22:23:17.785Z,21.13
2018-06-16T22:25:46.626Z,21.12
2018-06-16T22:28:15.251Z,21.07
2018-06-16T22:30:43.871Z,20.87
2018-06-16T22:33:12.752Z,20.92
2018-06-16T22:35:41.453Z,20.93
2018-06-16T22:38:10.034Z,20.87
2018-06-16T22:40:38.755Z,20.86
2018-06-16T22:43:07.344Z,20.78
2018-06-16T22:45:36.440Z,20.77
2018-06-16T22:48:05.141Z,20.77
2018-06-16T22:50:33.840Z,20.70
2018-06-16T22:53:02.413Z,20.65
2018-06-16T22:55:31.054Z,20.61
2018-06-16T22:57:59.748Z,20.64
2018-06-16T23:00:29.188Z,20.49
2018-06-16T23:02:58.932Z,20.40
2018-06-16T23:05:27.612Z,20.31
2018-06-16T23:07:56.251Z,20.13
2018-06-16T23:10:25.497Z,20.13
2018-06-16T23:12:54.163Z,20.11
2018-06-16T23:15:22.896Z,20.21
2018-06-16T23:17:51.623Z,19.98
2018-06-16T23:20:20.187Z,20.09
2018-06-16T23:22:49.182Z,20.30
2018-06-16T23:25:17.876Z,20.24
2018-06-16T23:27:46.547Z,20.36
2018-06-16T23:30:15.324Z,20.53
2018-06-16T23:32:44.129Z,20.62
2018-06-16T23:35:12.716Z,20.65
2018-06-16T23:37:41.387Z,20.74
2018-06-16T23:40:09.985Z,20.77
2018-06-16T23:42:38.536Z,20.86
2018-06-16T23:45:07.400Z,20.75
2018-06-16T23:47:36.051Z,20.82
2018-06-16T23:50:04.820Z,20.86
2018-06-16T23:52:33.568Z,20.79
2018-06-16T23:55:02.228Z,20.55
2018-06-16T23:57:31.007Z,20.55
2018-06-16T23:59:59.828Z,20.57
